sensor_id;sensor_type;location;lat;lon;timestamp;P1;durP1;ratioP1;P2;durP2;ratioP2
35074;SDS011;21260;34.984;32.490;2022-12-10T00:01:35;17.00;;;10.83;;
35074;SDS011;21260;34.984;32.490;2022-12-10T00:04:02;18.23;;;11.50;;
35074;SDS011;21260;34.984;32.490;2022-12-10T00:06:30;17.87;;;12.17;;
35074;SDS011;21260;34.984;32.490;2022-12-10T00:09:00;20.17;;;11.67;;
35074;SDS011;21260;34.984;32.490;2022-12-10T00:11:28;15.90;;;11.97;;
35074;SDS011;21260;34.984;32.490;2022-12-10T00:13:55;16.53;;;12.30;;
35074;SDS011;21260;34.984;32.490;2022-12-10T00:16:24;18.50;;;12.70;;
35074;SDS011;21260;34.984;32.490;2022-12-10T00:18:53;18.67;;;12.03;;
35074;SDS011;21260;34.984;32.490;2022-12-10T00:21:21;16.80;;;12.10;;
35074;SDS011;21260;34.984;32.490;2022-12-10T00:23:57;16.57;;;12.17;;
35074;SDS011;21260;34.984;32.490;2022-12-10T00:26:25;19.43;;;13.13;;
35074;SDS011;21260;34.984;32.490;2022-12-10T00:29:00;18.03;;;12.53;;
35074;SDS011;21260;34.984;32.490;2022-12-10T00:31:30;21.13;;;13.40;;
35074;SDS011;21260;34.984;32.490;2022-12-10T00:34:01;18.33;;;12.40;;
35074;SDS011;21260;34.984;32.490;2022-12-10T00:36:33;22.17;;;13.87;;
35074;SDS011;21260;34.984;32.490;2022-12-10T00:39:10;17.70;;;13.40;;
35074;SDS011;21260;34.984;32.490;2022-12-10T00:41:40;19.60;;;13.20;;
35074;SDS011;21260;34.984;32.490;2022-12-10T00:44:06;18.90;;;13.53;;
35074;SDS011;21260;34.984;32.490;2022-12-10T00:46:33;19.80;;;13.40;;
35074;SDS011;21260;34.984;32.490;2022-12-10T00:48:59;17.87;;;13.07;;
35074;SDS011;21260;34.984;32.490;2022-12-10T00:51:26;20.33;;;14.10;;
35074;SDS011;21260;34.984;32.490;2022-12-10T00:53:54;20.60;;;13.73;;
35074;SDS011;21260;34.984;32.490;2022-12-10T00:56:24;21.10;;;13.87;;
35074;SDS011;21260;34.984;32.490;2022-12-10T00:58:54;20.67;;;13.57;;
35074;SDS011;21260;34.984;32.490;2022-12-10T01:01:28;21.00;;;13.57;;
35074;SDS011;21260;34.984;32.490;2022-12-10T01:04:02;21.40;;;14.33;;
35074;SDS011;21260;34.984;32.490;2022-12-10T01:06:36;17.90;;;13.60;;
35074;SDS011;21260;34.984;32.490;2022-12-10T01:09:22;21.10;;;13.83;;
35074;SDS011;21260;34.984;32.490;2022-12-10T01:11:53;18.80;;;14.13;;
35074;SDS011;21260;34.984;32.490;2022-12-10T01:14:24;18.90;;;14.50;;
35074;SDS011;21260;34.984;32.490;2022-12-10T01:16:54;20.30;;;14.20;;
35074;SDS011;21260;34.984;32.490;2022-12-10T01:19:23;18.57;;;13.13;;
35074;SDS011;21260;34.984;32.490;2022-12-10T01:21:51;20.40;;;14.17;;
35074;SDS011;21260;34.984;32.490;2022-12-10T01:24:23;17.83;;;12.67;;
35074;SDS011;21260;34.984;32.490;2022-12-10T01:26:52;19.70;;;13.90;;
35074;SDS011;21260;34.984;32.490;2022-12-10T01:29:20;19.00;;;13.67;;
35074;SDS011;21260;34.984;32.490;2022-12-10T01:31:49;19.00;;;13.47;;
35074;SDS011;21260;34.984;32.490;2022-12-10T01:34:18;20.83;;;13.97;;
35074;SDS011;21260;34.984;32.490;2022-12-10T01:36:48;23.27;;;13.90;;
35074;SDS011;21260;34.984;32.490;2022-12-10T01:39:18;19.20;;;13.23;;
35074;SDS011;21260;34.984;32.490;2022-12-10T01:41:51;22.10;;;13.83;;
35074;SDS011;21260;34.984;32.490;2022-12-10T01:46:48;21.07;;;13.93;;
35074;SDS011;21260;34.984;32.490;2022-12-10T01:49:24;19.07;;;13.83;;
35074;SDS011;21260;34.984;32.490;2022-12-10T01:51:57;19.70;;;13.83;;
35074;SDS011;21260;34.984;32.490;2022-12-10T01:57:00;20.20;;;13.73;;
35074;SDS011;21260;34.984;32.490;2022-12-10T01:59:33;23.07;;;13.53;;
35074;SDS011;21260;34.984;32.490;2022-12-10T02:05:14;19.47;;;13.77;;
35074;SDS011;21260;34.984;32.490;2022-12-10T02:13:44;19.30;;;13.43;;
35074;SDS011;21260;34.984;32.490;2022-12-10T02:16:27;20.60;;;12.90;;
35074;SDS011;21260;34.984;32.490;2022-12-10T02:22:05;18.03;;;12.83;;
35074;SDS011;21260;34.984;32.490;2022-12-10T02:24:35;20.20;;;12.60;;
35074;SDS011;21260;34.984;32.490;2022-12-10T02:27:05;24.83;;;13.57;;
35074;SDS011;21260;34.984;32.490;2022-12-10T02:29:39;19.47;;;13.20;;
35074;SDS011;21260;34.984;32.490;2022-12-10T02:32:13;18.43;;;13.33;;
35074;SDS011;21260;34.984;32.490;2022-12-10T02:34:52;17.07;;;12.20;;
35074;SDS011;21260;34.984;32.490;2022-12-10T02:37:29;21.07;;;12.40;;
35074;SDS011;21260;34.984;32.490;2022-12-10T02:40:02;16.47;;;11.47;;
35074;SDS011;21260;34.984;32.490;2022-12-10T02:42:40;14.23;;;11.37;;
35074;SDS011;21260;34.984;32.490;2022-12-10T02:45:11;16.90;;;11.47;;
35074;SDS011;21260;34.984;32.490;2022-12-10T02:47:39;17.43;;;12.00;;
35074;SDS011;21260;34.984;32.490;2022-12-10T02:50:07;22.03;;;12.10;;
35074;SDS011;21260;34.984;32.490;2022-12-10T02:52:36;18.63;;;13.43;;
35074;SDS011;21260;34.984;32.490;2022-12-10T02:55:03;19.00;;;12.73;;
35074;SDS011;21260;34.984;32.490;2022-12-10T03:00:40;24.30;;;14.50;;
35074;SDS011;21260;34.984;32.490;2022-12-10T03:03:37;26.13;;;13.93;;
35074;SDS011;21260;34.984;32.490;2022-12-10T03:09:31;20.77;;;13.50;;
35074;SDS011;21260;34.984;32.490;2022-12-10T03:15:20;19.60;;;13.47;;
35074;SDS011;21260;34.984;32.490;2022-12-10T03:17:49;21.00;;;13.63;;
35074;SDS011;21260;34.984;32.490;2022-12-10T03:20:19;20.53;;;13.93;;
35074;SDS011;21260;34.984;32.490;2022-12-10T03:22:49;24.03;;;13.83;;
35074;SDS011;21260;34.984;32.490;2022-12-10T03:25:18;17.87;;;12.77;;
35074;SDS011;21260;34.984;32.490;2022-12-10T03:27:50;17.60;;;12.27;;
35074;SDS011;21260;34.984;32.490;2022-12-10T03:30:20;17.27;;;12.73;;
35074;SDS011;21260;34.984;32.490;2022-12-10T03:32:48;19.20;;;13.63;;
35074;SDS011;21260;34.984;32.490;2022-12-10T03:35:15;21.67;;;11.90;;
35074;SDS011;21260;34.984;32.490;2022-12-10T03:37:46;20.80;;;12.83;;
35074;SDS011;21260;34.984;32.490;2022-12-10T03:40:14;18.70;;;12.57;;
35074;SDS011;21260;34.984;32.490;2022-12-10T03:42:47;21.27;;;11.83;;
35074;SDS011;21260;34.984;32.490;2022-12-10T03:45:14;16.50;;;11.80;;
35074;SDS011;21260;34.984;32.490;2022-12-10T03:47:41;16.77;;;11.00;;
35074;SDS011;21260;34.984;32.490;2022-12-10T03:50:08;19.70;;;11.17;;
35074;SDS011;21260;34.984;32.490;2022-12-10T03:52:35;21.70;;;10.63;;
35074;SDS011;21260;34.984;32.490;2022-12-10T03:55:02;14.67;;;9.63;;
35074;SDS011;21260;34.984;32.490;2022-12-10T03:57:28;16.73;;;10.13;;
35074;SDS011;21260;34.984;32.490;2022-12-10T03:59:54;14.60;;;9.80;;
35074;SDS011;21260;34.984;32.490;2022-12-10T04:02:21;15.67;;;9.77;;
35074;SDS011;21260;34.984;32.490;2022-12-10T04:04:48;15.73;;;10.17;;
35074;SDS011;21260;34.984;32.490;2022-12-10T04:07:14;16.90;;;10.10;;
35074;SDS011;21260;34.984;32.490;2022-12-10T04:09:40;15.23;;;9.70;;
35074;SDS011;21260;34.984;32.490;2022-12-10T04:12:07;14.73;;;10.20;;
35074;SDS011;21260;34.984;32.490;2022-12-10T04:14:34;14.43;;;9.93;;
35074;SDS011;21260;34.984;32.490;2022-12-10T04:17:20;15.33;;;10.40;;
35074;SDS011;21260;34.984;32.490;2022-12-10T04:19:46;13.87;;;9.80;;
35074;SDS011;21260;34.984;32.490;2022-12-10T04:22:13;14.87;;;9.93;;
35074;SDS011;21260;34.984;32.490;2022-12-10T04:24:58;16.03;;;9.47;;
35074;SDS011;21260;34.984;32.490;2022-12-10T04:27:43;13.93;;;9.70;;
35074;SDS011;21260;34.984;32.490;2022-12-10T04:30:11;12.03;;;8.90;;
35074;SDS011;21260;34.984;32.490;2022-12-10T04:32:37;12.13;;;8.13;;
35074;SDS011;21260;34.984;32.490;2022-12-10T04:35:05;11.47;;;8.30;;
35074;SDS011;21260;34.984;32.490;2022-12-10T04:37:33;11.50;;;8.07;;
35074;SDS011;21260;34.984;32.490;2022-12-10T04:39:59;16.93;;;8.57;;
35074;SDS011;21260;34.984;32.490;2022-12-10T04:42:27;11.90;;;7.90;;
35074;SDS011;21260;34.984;32.490;2022-12-10T04:44:53;12.33;;;7.83;;
35074;SDS011;21260;34.984;32.490;2022-12-10T04:47:20;9.50;;;6.97;;
35074;SDS011;21260;34.984;32.490;2022-12-10T04:49:46;9.87;;;6.90;;
35074;SDS011;21260;34.984;32.490;2022-12-10T04:52:13;12.77;;;6.60;;
35074;SDS011;21260;34.984;32.490;2022-12-10T04:54:41;9.40;;;6.43;;
35074;SDS011;21260;34.984;32.490;2022-12-10T04:57:09;11.33;;;6.53;;
35074;SDS011;21260;34.984;32.490;2022-12-10T04:59:36;9.30;;;5.93;;
35074;SDS011;21260;34.984;32.490;2022-12-10T05:02:04;9.70;;;5.83;;
35074;SDS011;21260;34.984;32.490;2022-12-10T05:04:30;8.97;;;5.63;;
35074;SDS011;21260;34.984;32.490;2022-12-10T05:06:58;9.10;;;5.40;;
35074;SDS011;21260;34.984;32.490;2022-12-10T05:09:25;9.20;;;5.33;;
35074;SDS011;21260;34.984;32.490;2022-12-10T05:11:51;8.17;;;5.27;;
35074;SDS011;21260;34.984;32.490;2022-12-10T05:14:20;12.37;;;5.23;;
35074;SDS011;21260;34.984;32.490;2022-12-10T05:16:48;7.70;;;5.00;;
35074;SDS011;21260;34.984;32.490;2022-12-10T05:19:17;9.27;;;5.33;;
35074;SDS011;21260;34.984;32.490;2022-12-10T05:21:48;8.87;;;5.07;;
35074;SDS011;21260;34.984;32.490;2022-12-10T05:24:35;13.83;;;6.07;;
35074;SDS011;21260;34.984;32.490;2022-12-10T05:27:02;12.30;;;6.57;;
35074;SDS011;21260;34.984;32.490;2022-12-10T05:29:30;10.00;;;6.97;;
35074;SDS011;21260;34.984;32.490;2022-12-10T05:31:59;11.53;;;7.43;;
35074;SDS011;21260;34.984;32.490;2022-12-10T05:34:25;13.77;;;7.90;;
35074;SDS011;21260;34.984;32.490;2022-12-10T05:36:52;11.33;;;7.63;;
35074;SDS011;21260;34.984;32.490;2022-12-10T05:39:22;11.37;;;8.20;;
35074;SDS011;21260;34.984;32.490;2022-12-10T05:41:48;11.57;;;7.73;;
35074;SDS011;21260;34.984;32.490;2022-12-10T05:44:19;10.40;;;7.27;;
35074;SDS011;21260;34.984;32.490;2022-12-10T05:46:46;12.87;;;7.30;;
35074;SDS011;21260;34.984;32.490;2022-12-10T05:49:12;9.13;;;6.73;;
35074;SDS011;21260;34.984;32.490;2022-12-10T05:51:39;11.33;;;7.40;;
35074;SDS011;21260;34.984;32.490;2022-12-10T05:54:06;10.63;;;6.93;;
35074;SDS011;21260;34.984;32.490;2022-12-10T05:56:35;12.77;;;6.93;;
35074;SDS011;21260;34.984;32.490;2022-12-10T05:59:03;10.83;;;6.50;;
35074;SDS011;21260;34.984;32.490;2022-12-10T06:01:32;9.23;;;6.67;;
35074;SDS011;21260;34.984;32.490;2022-12-10T06:04:01;10.53;;;6.80;;
35074;SDS011;21260;34.984;32.490;2022-12-10T06:06:34;13.57;;;6.60;;
35074;SDS011;21260;34.984;32.490;2022-12-10T06:09:02;10.70;;;6.27;;
35074;SDS011;21260;34.984;32.490;2022-12-10T06:11:30;11.37;;;6.67;;
35074;SDS011;21260;34.984;32.490;2022-12-10T06:13:57;11.10;;;6.33;;
35074;SDS011;21260;34.984;32.490;2022-12-10T06:16:25;8.60;;;5.83;;
35074;SDS011;21260;34.984;32.490;2022-12-10T06:18:53;11.97;;;6.13;;
35074;SDS011;21260;34.984;32.490;2022-12-10T06:21:20;9.27;;;6.20;;
35074;SDS011;21260;34.984;32.490;2022-12-10T06:23:48;11.23;;;6.10;;
35074;SDS011;21260;34.984;32.490;2022-12-10T06:26:18;11.57;;;6.23;;
35074;SDS011;21260;34.984;32.490;2022-12-10T06:28:50;9.03;;;5.83;;
35074;SDS011;21260;34.984;32.490;2022-12-10T06:31:18;7.97;;;5.37;;
35074;SDS011;21260;34.984;32.490;2022-12-10T06:33:46;9.13;;;5.97;;
35074;SDS011;21260;34.984;32.490;2022-12-10T06:36:16;8.33;;;6.53;;
35074;SDS011;21260;34.984;32.490;2022-12-10T06:38:43;10.30;;;6.50;;
35074;SDS011;21260;34.984;32.490;2022-12-10T06:41:12;11.90;;;6.37;;
35074;SDS011;21260;34.984;32.490;2022-12-10T06:43:41;11.33;;;6.57;;
35074;SDS011;21260;34.984;32.490;2022-12-10T06:46:09;10.00;;;6.33;;
35074;SDS011;21260;34.984;32.490;2022-12-10T06:48:38;8.20;;;5.73;;
35074;SDS011;21260;34.984;32.490;2022-12-10T06:51:04;11.23;;;6.00;;
35074;SDS011;21260;34.984;32.490;2022-12-10T06:53:32;12.50;;;6.13;;
35074;SDS011;21260;34.984;32.490;2022-12-10T06:56:01;11.73;;;6.30;;
35074;SDS011;21260;34.984;32.490;2022-12-10T06:58:29;11.60;;;6.63;;
35074;SDS011;21260;34.984;32.490;2022-12-10T07:01:04;15.37;;;6.70;;
35074;SDS011;21260;34.984;32.490;2022-12-10T07:03:34;10.57;;;6.33;;
35074;SDS011;21260;34.984;32.490;2022-12-10T07:06:01;12.27;;;6.67;;
35074;SDS011;21260;34.984;32.490;2022-12-10T07:08:29;10.23;;;6.60;;
35074;SDS011;21260;34.984;32.490;2022-12-10T07:10:55;11.57;;;6.70;;
35074;SDS011;21260;34.984;32.490;2022-12-10T07:13:23;10.87;;;6.60;;
35074;SDS011;21260;34.984;32.490;2022-12-10T07:15:50;10.30;;;6.53;;
35074;SDS011;21260;34.984;32.490;2022-12-10T07:18:16;12.07;;;7.77;;
35074;SDS011;21260;34.984;32.490;2022-12-10T07:20:42;12.73;;;7.33;;
35074;SDS011;21260;34.984;32.490;2022-12-10T07:23:09;16.10;;;7.10;;
35074;SDS011;21260;34.984;32.490;2022-12-10T07:25:35;12.40;;;7.07;;
35074;SDS011;21260;34.984;32.490;2022-12-10T07:28:01;9.97;;;6.87;;
35074;SDS011;21260;34.984;32.490;2022-12-10T07:30:28;11.97;;;7.00;;
35074;SDS011;21260;34.984;32.490;2022-12-10T07:32:54;13.83;;;6.97;;
35074;SDS011;21260;34.984;32.490;2022-12-10T07:35:21;9.73;;;6.57;;
35074;SDS011;21260;34.984;32.490;2022-12-10T07:37:47;10.30;;;7.17;;
35074;SDS011;21260;34.984;32.490;2022-12-10T07:40:14;11.70;;;6.67;;
35074;SDS011;21260;34.984;32.490;2022-12-10T07:42:40;11.63;;;7.70;;
35074;SDS011;21260;34.984;32.490;2022-12-10T07:45:06;11.83;;;7.00;;
35074;SDS011;21260;34.984;32.490;2022-12-10T07:47:35;10.53;;;6.80;;
35074;SDS011;21260;34.984;32.490;2022-12-10T07:50:03;9.83;;;6.67;;
35074;SDS011;21260;34.984;32.490;2022-12-10T07:52:30;12.97;;;6.93;;
35074;SDS011;21260;34.984;32.490;2022-12-10T07:54:57;9.80;;;6.97;;
35074;SDS011;21260;34.984;32.490;2022-12-10T07:57:23;13.93;;;7.03;;
35074;SDS011;21260;34.984;32.490;2022-12-10T07:59:49;7.83;;;5.87;;
35074;SDS011;21260;34.984;32.490;2022-12-10T08:02:16;10.60;;;6.53;;
35074;SDS011;21260;34.984;32.490;2022-12-10T08:04:42;10.17;;;6.40;;
35074;SDS011;21260;34.984;32.490;2022-12-10T08:07:08;9.87;;;6.30;;
35074;SDS011;21260;34.984;32.490;2022-12-10T08:09:34;11.87;;;6.47;;
35074;SDS011;21260;34.984;32.490;2022-12-10T08:12:00;10.00;;;6.93;;
35074;SDS011;21260;34.984;32.490;2022-12-10T08:14:27;11.10;;;6.70;;
35074;SDS011;21260;34.984;32.490;2022-12-10T08:16:54;11.83;;;6.60;;
35074;SDS011;21260;34.984;32.490;2022-12-10T08:19:20;11.50;;;6.77;;
35074;SDS011;21260;34.984;32.490;2022-12-10T08:21:46;11.87;;;7.13;;
35074;SDS011;21260;34.984;32.490;2022-12-10T08:24:13;10.67;;;6.90;;
35074;SDS011;21260;34.984;32.490;2022-12-10T08:26:39;10.70;;;6.90;;
35074;SDS011;21260;34.984;32.490;2022-12-10T08:29:05;13.83;;;7.50;;
35074;SDS011;21260;34.984;32.490;2022-12-10T08:31:32;12.23;;;7.23;;
35074;SDS011;21260;34.984;32.490;2022-12-10T08:33:58;9.37;;;6.50;;
35074;SDS011;21260;34.984;32.490;2022-12-10T08:36:24;11.83;;;6.83;;
35074;SDS011;21260;34.984;32.490;2022-12-10T08:38:50;10.27;;;6.60;;
35074;SDS011;21260;34.984;32.490;2022-12-10T08:41:18;12.50;;;6.53;;
35074;SDS011;21260;34.984;32.490;2022-12-10T08:43:47;11.37;;;6.63;;
35074;SDS011;21260;34.984;32.490;2022-12-10T08:46:16;13.30;;;6.80;;
35074;SDS011;21260;34.984;32.490;2022-12-10T08:48:43;11.57;;;6.90;;
35074;SDS011;21260;34.984;32.490;2022-12-10T08:51:11;10.70;;;6.80;;
35074;SDS011;21260;34.984;32.490;2022-12-10T08:53:41;11.00;;;6.80;;
35074;SDS011;21260;34.984;32.490;2022-12-10T08:56:08;11.03;;;6.73;;
35074;SDS011;21260;34.984;32.490;2022-12-10T08:58:35;9.63;;;6.47;;
35074;SDS011;21260;34.984;32.490;2022-12-10T09:01:10;11.03;;;6.70;;
35074;SDS011;21260;34.984;32.490;2022-12-10T09:03:42;8.80;;;6.63;;
35074;SDS011;21260;34.984;32.490;2022-12-10T09:06:10;9.50;;;6.20;;
35074;SDS011;21260;34.984;32.490;2022-12-10T09:08:40;8.63;;;5.43;;
35074;SDS011;21260;34.984;32.490;2022-12-10T09:11:07;9.23;;;5.77;;
35074;SDS011;21260;34.984;32.490;2022-12-10T09:13:40;8.00;;;5.40;;
35074;SDS011;21260;34.984;32.490;2022-12-10T09:16:07;13.40;;;6.60;;
35074;SDS011;21260;34.984;32.490;2022-12-10T09:18:35;14.63;;;6.37;;
35074;SDS011;21260;34.984;32.490;2022-12-10T09:21:08;14.33;;;6.67;;
35074;SDS011;21260;34.984;32.490;2022-12-10T09:23:39;8.33;;;5.83;;
35074;SDS011;21260;34.984;32.490;2022-12-10T09:26:10;10.60;;;6.30;;
35074;SDS011;21260;34.984;32.490;2022-12-10T09:28:40;10.77;;;6.80;;
35074;SDS011;21260;34.984;32.490;2022-12-10T09:31:08;9.83;;;6.93;;
35074;SDS011;21260;34.984;32.490;2022-12-10T09:33:37;12.03;;;7.27;;
35074;SDS011;21260;34.984;32.490;2022-12-10T09:36:04;10.47;;;7.30;;
35074;SDS011;21260;34.984;32.490;2022-12-10T09:38:33;11.60;;;7.00;;
35074;SDS011;21260;34.984;32.490;2022-12-10T09:41:03;10.47;;;6.80;;
35074;SDS011;21260;34.984;32.490;2022-12-10T09:43:52;14.00;;;8.00;;
35074;SDS011;21260;34.984;32.490;2022-12-10T09:47:02;11.60;;;7.90;;
35074;SDS011;21260;34.984;32.490;2022-12-10T09:52:16;14.07;;;8.63;;
35074;SDS011;21260;34.984;32.490;2022-12-10T09:54:50;14.10;;;8.43;;
35074;SDS011;21260;34.984;32.490;2022-12-10T09:57:26;11.97;;;7.63;;
35074;SDS011;21260;34.984;32.490;2022-12-10T10:00:15;13.47;;;8.20;;
35074;SDS011;21260;34.984;32.490;2022-12-10T10:02:58;17.97;;;8.70;;
35074;SDS011;21260;34.984;32.490;2022-12-10T10:08:01;12.27;;;8.47;;
35074;SDS011;21260;34.984;32.490;2022-12-10T10:10:53;14.20;;;8.17;;
35074;SDS011;21260;34.984;32.490;2022-12-10T10:15:54;13.83;;;9.13;;
35074;SDS011;21260;34.984;32.490;2022-12-10T10:19:06;15.80;;;9.43;;
35074;SDS011;21260;34.984;32.490;2022-12-10T10:21:43;17.97;;;9.53;;
35074;SDS011;21260;34.984;32.490;2022-12-10T10:24:17;13.87;;;9.77;;
35074;SDS011;21260;34.984;32.490;2022-12-10T10:26:48;15.53;;;9.70;;
35074;SDS011;21260;34.984;32.490;2022-12-10T10:29:18;18.27;;;9.77;;
35074;SDS011;21260;34.984;32.490;2022-12-10T10:31:46;11.43;;;8.73;;
35074;SDS011;21260;34.984;32.490;2022-12-10T10:34:33;14.67;;;9.60;;
35074;SDS011;21260;34.984;32.490;2022-12-10T10:37:03;19.03;;;10.00;;
35074;SDS011;21260;34.984;32.490;2022-12-10T10:39:31;16.53;;;10.77;;
35074;SDS011;21260;34.984;32.490;2022-12-10T10:42:00;12.17;;;9.40;;
35074;SDS011;21260;34.984;32.490;2022-12-10T10:44:36;14.97;;;10.27;;
35074;SDS011;21260;34.984;32.490;2022-12-10T10:47:23;13.60;;;9.13;;
35074;SDS011;21260;34.984;32.490;2022-12-10T10:49:56;19.77;;;10.53;;
35074;SDS011;21260;34.984;32.490;2022-12-10T10:52:25;13.00;;;9.90;;
35074;SDS011;21260;34.984;32.490;2022-12-10T10:55:02;13.87;;;9.27;;
35074;SDS011;21260;34.984;32.490;2022-12-10T10:57:36;15.97;;;10.13;;
35074;SDS011;21260;34.984;32.490;2022-12-10T11:02:42;16.00;;;9.80;;
35074;SDS011;21260;34.984;32.490;2022-12-10T11:05:23;12.37;;;9.47;;
35074;SDS011;21260;34.984;32.490;2022-12-10T11:08:06;18.10;;;9.63;;
35074;SDS011;21260;34.984;32.490;2022-12-10T11:10:47;16.33;;;9.70;;
35074;SDS011;21260;34.984;32.490;2022-12-10T11:15:58;15.80;;;9.57;;
35074;SDS011;21260;34.984;32.490;2022-12-10T11:18:37;13.87;;;9.77;;
35074;SDS011;21260;34.984;32.490;2022-12-10T11:21:15;16.93;;;10.03;;
35074;SDS011;21260;34.984;32.490;2022-12-10T11:23:47;12.17;;;9.07;;
35074;SDS011;21260;34.984;32.490;2022-12-10T11:40:28;16.67;;;10.93;;
35074;SDS011;21260;34.984;32.490;2022-12-10T11:46:01;19.80;;;10.10;;
35074;SDS011;21260;34.984;32.490;2022-12-10T11:49:21;19.77;;;10.13;;
35074;SDS011;21260;34.984;32.490;2022-12-10T11:52:28;14.23;;;9.33;;
35074;SDS011;21260;34.984;32.490;2022-12-10T12:01:26;19.80;;;10.23;;
35074;SDS011;21260;34.984;32.490;2022-12-10T12:07:04;15.03;;;9.47;;
35074;SDS011;21260;34.984;32.490;2022-12-10T12:12:51;16.27;;;9.50;;
35074;SDS011;21260;34.984;32.490;2022-12-10T12:15:22;15.63;;;9.57;;
35074;SDS011;21260;34.984;32.490;2022-12-10T12:20:46;15.27;;;9.87;;
35074;SDS011;21260;34.984;32.490;2022-12-10T12:23:33;15.17;;;10.00;;
35074;SDS011;21260;34.984;32.490;2022-12-10T12:32:20;11.37;;;8.87;;
35074;SDS011;21260;34.984;32.490;2022-12-10T12:35:38;12.57;;;9.33;;
35074;SDS011;21260;34.984;32.490;2022-12-10T12:38:15;12.40;;;9.73;;
35074;SDS011;21260;34.984;32.490;2022-12-10T12:41:15;22.97;;;10.43;;
35074;SDS011;21260;34.984;32.490;2022-12-10T12:46:45;17.70;;;9.70;;
35074;SDS011;21260;34.984;32.490;2022-12-10T12:49:22;15.07;;;10.40;;
35074;SDS011;21260;34.984;32.490;2022-12-10T12:52:05;14.47;;;9.83;;
35074;SDS011;21260;34.984;32.490;2022-12-10T12:54:53;12.80;;;10.27;;
35074;SDS011;21260;34.984;32.490;2022-12-10T12:57:38;16.77;;;10.20;;
35074;SDS011;21260;34.984;32.490;2022-12-10T13:00:19;11.47;;;9.73;;
35074;SDS011;21260;34.984;32.490;2022-12-10T13:02:53;15.67;;;10.60;;
35074;SDS011;21260;34.984;32.490;2022-12-10T13:05:39;16.07;;;10.00;;
35074;SDS011;21260;34.984;32.490;2022-12-10T13:13:40;12.67;;;9.07;;
35074;SDS011;21260;34.984;32.490;2022-12-10T13:33:14;14.20;;;9.20;;
35074;SDS011;21260;34.984;32.490;2022-12-10T13:35:50;14.30;;;9.70;;
35074;SDS011;21260;34.984;32.490;2022-12-10T13:38:25;13.20;;;10.03;;
35074;SDS011;21260;34.984;32.490;2022-12-10T13:40:59;22.80;;;10.53;;
35074;SDS011;21260;34.984;32.490;2022-12-10T13:43:52;17.47;;;10.03;;
35074;SDS011;21260;34.984;32.490;2022-12-10T13:46:53;13.20;;;9.87;;
35074;SDS011;21260;34.984;32.490;2022-12-10T13:49:49;13.10;;;10.23;;
35074;SDS011;21260;34.984;32.490;2022-12-10T13:55:38;13.20;;;9.83;;
35074;SDS011;21260;34.984;32.490;2022-12-10T14:01:20;14.33;;;10.40;;
35074;SDS011;21260;34.984;32.490;2022-12-10T14:06:57;13.30;;;10.40;;
35074;SDS011;21260;34.984;32.490;2022-12-10T14:09:26;14.93;;;10.07;;
35074;SDS011;21260;34.984;32.490;2022-12-10T14:12:10;14.97;;;10.30;;
35074;SDS011;21260;34.984;32.490;2022-12-10T14:15:03;14.53;;;9.60;;
35074;SDS011;21260;34.984;32.490;2022-12-10T14:17:40;15.83;;;9.83;;
35074;SDS011;21260;34.984;32.490;2022-12-10T14:20:22;14.10;;;9.27;;
35074;SDS011;21260;34.984;32.490;2022-12-10T14:22:52;11.73;;;9.37;;
35074;SDS011;21260;34.984;32.490;2022-12-10T14:25:41;13.43;;;10.00;;
35074;SDS011;21260;34.984;32.490;2022-12-10T14:28:11;13.37;;;9.77;;
35074;SDS011;21260;34.984;32.490;2022-12-10T14:30:47;11.97;;;9.37;;
35074;SDS011;21260;34.984;32.490;2022-12-10T14:33:17;12.67;;;8.83;;
35074;SDS011;21260;34.984;32.490;2022-12-10T14:35:49;13.43;;;9.07;;
35074;SDS011;21260;34.984;32.490;2022-12-10T14:38:26;13.40;;;9.10;;
35074;SDS011;21260;34.984;32.490;2022-12-10T14:40:58;14.87;;;9.97;;
35074;SDS011;21260;34.984;32.490;2022-12-10T14:43:32;12.57;;;9.40;;
35074;SDS011;21260;34.984;32.490;2022-12-10T14:46:10;15.87;;;10.33;;
35074;SDS011;21260;34.984;32.490;2022-12-10T14:48:46;12.37;;;9.80;;
35074;SDS011;21260;34.984;32.490;2022-12-10T14:51:21;15.67;;;9.93;;
35074;SDS011;21260;34.984;32.490;2022-12-10T14:53:54;15.70;;;9.87;;
35074;SDS011;21260;34.984;32.490;2022-12-10T14:56:35;15.97;;;10.10;;
35074;SDS011;21260;34.984;32.490;2022-12-10T14:59:07;12.70;;;9.97;;
35074;SDS011;21260;34.984;32.490;2022-12-10T15:01:43;14.67;;;10.07;;
35074;SDS011;21260;34.984;32.490;2022-12-10T15:04:19;15.47;;;10.13;;
35074;SDS011;21260;34.984;32.490;2022-12-10T15:06:46;17.87;;;10.57;;
35074;SDS011;21260;34.984;32.490;2022-12-10T15:09:15;13.33;;;9.63;;
35074;SDS011;21260;34.984;32.490;2022-12-10T15:11:55;13.47;;;9.97;;
35074;SDS011;21260;34.984;32.490;2022-12-10T15:14:23;14.37;;;9.43;;
35074;SDS011;21260;34.984;32.490;2022-12-10T15:16:54;17.30;;;9.60;;
35074;SDS011;21260;34.984;32.490;2022-12-10T15:22:11;17.10;;;10.50;;
35074;SDS011;21260;34.984;32.490;2022-12-10T15:24:45;12.97;;;10.10;;
35074;SDS011;21260;34.984;32.490;2022-12-10T15:29:48;14.00;;;10.50;;
35074;SDS011;21260;34.984;32.490;2022-12-10T15:32:20;14.97;;;12.17;;
35074;SDS011;21260;34.984;32.490;2022-12-10T15:34:54;16.10;;;12.57;;
35074;SDS011;21260;34.984;32.490;2022-12-10T15:37:26;15.43;;;11.03;;
35074;SDS011;21260;34.984;32.490;2022-12-10T15:40:00;15.00;;;10.03;;
35074;SDS011;21260;34.984;32.490;2022-12-10T15:47:45;15.83;;;10.70;;
35074;SDS011;21260;34.984;32.490;2022-12-10T15:50:12;19.07;;;12.53;;
35074;SDS011;21260;34.984;32.490;2022-12-10T15:52:40;19.77;;;12.27;;
35074;SDS011;21260;34.984;32.490;2022-12-10T15:55:09;16.70;;;11.77;;
35074;SDS011;21260;34.984;32.490;2022-12-10T15:57:39;19.50;;;12.47;;
35074;SDS011;21260;34.984;32.490;2022-12-10T16:00:16;16.67;;;11.90;;
35074;SDS011;21260;34.984;32.490;2022-12-10T16:05:32;19.33;;;12.27;;
35074;SDS011;21260;34.984;32.490;2022-12-10T16:08:03;22.03;;;13.10;;
35074;SDS011;21260;34.984;32.490;2022-12-10T16:10:45;18.37;;;12.77;;
35074;SDS011;21260;34.984;32.490;2022-12-10T16:13:29;21.77;;;12.47;;
35074;SDS011;21260;34.984;32.490;2022-12-10T16:16:06;17.10;;;12.57;;
35074;SDS011;21260;34.984;32.490;2022-12-10T16:18:35;18.60;;;11.97;;
35074;SDS011;21260;34.984;32.490;2022-12-10T16:21:03;18.13;;;11.73;;
35074;SDS011;21260;34.984;32.490;2022-12-10T16:23:33;17.30;;;11.37;;
35074;SDS011;21260;34.984;32.490;2022-12-10T16:26:00;17.00;;;12.37;;
35074;SDS011;21260;34.984;32.490;2022-12-10T16:28:27;20.10;;;11.37;;
35074;SDS011;21260;34.984;32.490;2022-12-10T16:30:55;17.80;;;11.53;;
35074;SDS011;21260;34.984;32.490;2022-12-10T16:33:24;19.13;;;12.53;;
35074;SDS011;21260;34.984;32.490;2022-12-10T16:35:53;15.63;;;11.77;;
35074;SDS011;21260;34.984;32.490;2022-12-10T16:38:22;16.30;;;11.77;;
35074;SDS011;21260;34.984;32.490;2022-12-10T16:40:50;17.73;;;11.67;;
35074;SDS011;21260;34.984;32.490;2022-12-10T16:43:18;14.60;;;11.20;;
35074;SDS011;21260;34.984;32.490;2022-12-10T16:45:52;15.60;;;11.63;;
35074;SDS011;21260;34.984;32.490;2022-12-10T16:48:22;15.30;;;10.80;;
35074;SDS011;21260;34.984;32.490;2022-12-10T16:50:51;17.43;;;11.60;;
35074;SDS011;21260;34.984;32.490;2022-12-10T16:53:25;17.20;;;12.50;;